createdAt,value
2018-10-02T00:02:28.293Z,100.00
2018-10-02T00:17:33.312Z,100.00
2018-10-02T00:32:37.132Z,100.00
2018-10-02T00:47:40.918Z,100.00
2018-10-02T01:02:44.715Z,100.00
2018-10-02T01:17:48.487Z,100.00
2018-10-02T01:32:52.317Z,100.00
2018-10-02T01:47:56.373Z,100.00
2018-10-02T02:03:00.355Z,100.00
2018-10-02T02:18:04.938Z,100.00
2018-10-02T02:33:08.728Z,100.00
2018-10-02T02:48:18.047Z,100.00
2018-10-02T03:03:22.243Z,100.00
2018-10-02T03:18:26.334Z,100.00
2018-10-02T03:33:30.155Z,100.00
2018-10-02T03:48:34.291Z,100.00
2018-10-02T04:03:38.111Z,100.00
2018-10-02T04:18:42.209Z,100.00
2018-10-02T04:33:46.875Z,100.00
2018-10-02T04:48:52.399Z,100.00
2018-10-02T05:03:56.195Z,100.00
2018-10-02T05:19:00.447Z,100.00
2018-10-02T05:34:04.625Z,100.00
2018-10-02T05:49:08.797Z,100.00
2018-10-02T06:04:12.873Z,100.00
2018-10-02T06:19:17.034Z,100.00
2018-10-02T06:34:21.304Z,100.00
2018-10-02T06:49:25.392Z,100.00
2018-10-02T07:04:29.455Z,100.00
2018-10-02T07:19:33.707Z,90.25
2018-10-02T07:34:39.303Z,88.94
2018-10-02T07:49:43.435Z,68.32
2018-10-02T08:04:47.639Z,55.27
2018-10-02T08:19:51.964Z,51.25
2018-10-02T08:34:56.157Z,50.58
2018-10-02T08:50:00.315Z,46.75
2018-10-02T09:05:04.412Z,47.17
2018-10-02T09:20:08.594Z,45.19
2018-10-02T09:35:18.807Z,50.07
2018-10-02T09:50:23.037Z,43.61
2018-10-02T10:05:27.307Z,46.80
2018-10-02T10:20:31.555Z,49.67
2018-10-02T10:35:35.675Z,48.17
2018-10-02T10:50:39.880Z,46.57
2018-10-02T11:05:44.074Z,44.96
2018-10-02T11:20:48.373Z,43.73
2018-10-02T11:35:52.539Z,47.11
2018-10-02T11:50:56.717Z,44.39
2018-10-02T12:06:00.827Z,45.26
2018-10-02T12:21:05.310Z,44.77
2018-10-02T12:36:10.481Z,43.09
2018-10-02T12:51:14.875Z,42.88
2018-10-02T13:06:19.169Z,44.81
2018-10-02T13:21:23.367Z,43.77
2018-10-02T13:36:27.574Z,44.43
2018-10-02T13:51:31.919Z,45.39
2018-10-02T14:06:36.166Z,46.86
2018-10-02T14:21:40.408Z,51.09
2018-10-02T14:36:44.782Z,53.43
2018-10-02T14:51:48.909Z,54.02
2018-10-02T15:06:53.080Z,56.02
2018-10-02T15:21:57.262Z,57.97
2018-10-02T15:37:01.359Z,57.55
2018-10-02T15:52:05.708Z,57.63
2018-10-02T16:07:10.125Z,61.14
2018-10-02T16:22:14.363Z,65.34
2018-10-02T16:37:18.209Z,66.00
2018-10-02T16:52:22.024Z,63.70
2018-10-02T17:07:26.094Z,56.56
2018-10-02T17:22:29.980Z,55.79
2018-10-02T17:37:33.871Z,58.56
2018-10-02T17:52:37.746Z,59.87
2018-10-02T18:07:41.615Z,62.48
2018-10-02T18:22:45.561Z,64.62
2018-10-02T18:37:49.432Z,66.54
2018-10-02T18:52:54.077Z,68.50
2018-10-02T19:07:57.957Z,69.62
2018-10-02T19:23:01.873Z,71.68
2018-10-02T19:38:10.755Z,73.27
2018-10-02T19:53:14.638Z,71.80
2018-10-02T20:08:18.520Z,73.42
2018-10-02T20:23:22.440Z,74.43
2018-10-02T20:38:26.334Z,77.75
2018-10-02T20:53:30.136Z,80.13
2018-10-02T21:08:34.012Z,83.23
2018-10-02T21:23:37.843Z,84.74
2018-10-02T21:38:41.700Z,85.94
2018-10-02T21:53:45.650Z,86.68
2018-10-02T22:08:49.472Z,87.00
2018-10-02T22:23:53.343Z,88.52
2018-10-02T22:38:57.181Z,88.89
2018-10-02T22:54:01.008Z,89.20
2018-10-02T23:09:07.114Z,90.64
2018-10-02T23:24:10.912Z,91.59
2018-10-02T23:39:14.700Z,91.22
2018-10-02T23:54:18.533Z,91.99
